Time;durP1;ratioP1;P1;durP2;ratioP2;P2;SDS_P1;SDS_P2;PMS_P1;PMS_P2;Temp;Humidity;BMP_temperature;BMP_pressure;BME280_temperature;BME280_humidity;BME280_pressure;Samples;Min_cycle;Max_cycle;Signal;HPM_P1;HPM_P2
2023/06/13 00:00:57;;;;;;;16.13;8.57;;;18.00;99.90;;;;;;5077463;28;20056;-58
2023/06/13 00:03:26;;;;;;;10.63;8.40;;;18.00;99.90;;;;;;5052948;28;20045;-58
2023/06/13 00:05:55;;;;;;;15.65;8.10;;;18.00;99.90;;;;;;5070111;28;20059;-57
2023/06/13 00:08:24;;;;;;;14.80;8.23;;;18.00;99.90;;;;;;5062065;28;20055;-58
2023/06/13 00:10:52;;;;;;;15.27;8.88;;;18.00;99.90;;;;;;5078332;28;20071;-58
2023/06/13 00:13:19;;;;;;;13.13;9.73;;;18.00;99.90;;;;;;5057750;28;20048;-58
2023/06/13 00:15:52;;;;;;;13.98;8.68;;;18.00;99.90;;;;;;5069478;28;20060;-58
2023/06/13 00:18:22;;;;;;;19.05;9.65;;;18.00;99.90;;;;;;5070354;28;20044;-59
2023/06/13 00:20:54;;;;;;;18.20;9.27;;;18.00;99.90;;;;;;5068207;28;20063;-59
2023/06/13 00:23:22;;;;;;;10.95;8.77;;;17.90;99.90;;;;;;5068995;28;20037;-58
2023/06/13 00:25:50;;;;;;;18.95;8.88;;;17.90;99.90;;;;;;5057956;28;20041;-58
2023/06/13 00:28:18;;;;;;;11.90;8.50;;;17.90;99.90;;;;;;5067658;28;20604;-58
2023/06/13 00:30:47;;;;;;;13.73;8.45;;;17.90;99.90;;;;;;5068320;28;20529;-59
2023/06/13 00:33:18;;;;;;;11.98;9.35;;;17.90;99.90;;;;;;5068597;28;20044;-58
2023/06/13 00:35:46;;;;;;;14.77;9.60;;;17.90;99.90;;;;;;5031834;28;20076;-58
2023/06/13 00:38:17;;;;;;;12.50;8.77;;;17.90;99.90;;;;;;5058308;28;20510;-58
2023/06/13 00:40:45;;;;;;;13.90;9.47;;;17.90;99.90;;;;;;5060008;28;20293;-58
2023/06/13 00:43:12;;;;;;;16.02;9.93;;;17.90;99.90;;;;;;5047483;28;20294;-59
2023/06/13 00:45:40;;;;;;;16.40;10.23;;;17.90;99.90;;;;;;5067604;28;20063;-58
2023/06/13 00:48:08;;;;;;;13.02;9.77;;;17.90;99.90;;;;;;5068842;28;20502;-59
2023/06/13 00:50:40;;;;;;;12.45;9.00;;;17.90;99.90;;;;;;5062732;28;20052;-59
2023/06/13 00:53:16;;;;;;;13.52;10.43;;;17.90;99.90;;;;;;5047776;28;20509;-58
2023/06/13 00:55:46;;;;;;;17.13;9.48;;;17.80;99.90;;;;;;5063488;28;20040;-59
2023/06/13 00:58:15;;;;;;;12.85;9.05;;;17.80;99.90;;;;;;5057759;28;20057;-58
2023/06/13 01:00:44;;;;;;;18.37;9.53;;;17.80;99.90;;;;;;5058036;28;20056;-59
2023/06/13 01:03:16;;;;;;;15.52;10.48;;;17.90;99.90;;;;;;5066121;28;20057;-58
2023/06/13 01:05:47;;;;;;;18.25;10.30;;;17.90;99.90;;;;;;5059181;28;20045;-59
2023/06/13 01:08:22;;;;;;;19.90;10.80;;;17.90;99.90;;;;;;5048055;28;20041;-58
2023/06/13 01:11:10;;;;;;;13.80;10.88;;;17.90;99.90;;;;;;5068429;28;20270;-58
2023/06/13 01:13:47;;;;;;;15.80;12.35;;;17.90;99.90;;;;;;5084724;28;20039;-59
2023/06/13 01:16:28;;;;;;;16.95;11.45;;;17.90;99.90;;;;;;5065624;28;20055;-59
2023/06/13 01:18:58;;;;;;;14.38;10.30;;;17.90;99.90;;;;;;5084758;28;20659;-59
2023/06/13 01:21:32;;;;;;;17.77;10.07;;;17.90;99.90;;;;;;5058977;28;20043;-59
2023/06/13 01:24:07;;;;;;;14.80;10.07;;;17.90;99.90;;;;;;5063522;28;20043;-59
2023/06/13 01:26:59;;;;;;;21.25;10.57;;;17.90;99.90;;;;;;5069777;28;20045;-59
2023/06/13 01:29:29;;;;;;;14.48;9.77;;;17.90;99.90;;;;;;5046907;28;20520;-60
2023/06/13 01:31:58;;;;;;;14.88;10.95;;;17.90;99.90;;;;;;5066320;28;20508;-58
2023/06/13 01:34:26;;;;;;;12.90;9.88;;;17.90;99.90;;;;;;5066207;28;20044;-58
2023/06/13 01:36:54;;;;;;;16.60;10.93;;;17.90;99.90;;;;;;5034275;28;20045;-59
2023/06/13 01:39:22;;;;;;;14.90;11.00;;;17.90;99.90;;;;;;5063811;28;20048;-59
2023/06/13 01:41:51;;;;;;;13.80;10.35;;;17.90;99.90;;;;;;5078985;28;20060;-58
2023/06/13 01:44:20;;;;;;;13.57;10.48;;;17.90;99.90;;;;;;5050942;28;20048;-59
2023/06/13 01:46:58;;;;;;;14.57;11.23;;;17.90;99.90;;;;;;5057844;28;20053;-59
2023/06/13 01:49:49;;;;;;;15.43;11.05;;;17.90;99.90;;;;;;5051189;28;20068;-59
2023/06/13 01:52:58;;;;;;;17.77;11.35;;;17.90;99.90;;;;;;5053235;28;20056;-58
2023/06/13 01:55:37;;;;;;;20.50;11.80;;;17.90;99.90;;;;;;5050106;28;20237;-58
2023/06/13 01:58:22;;;;;;;15.32;11.63;;;17.90;99.90;;;;;;5065117;28;20400;-58
2023/06/13 02:00:55;;;;;;;20.95;12.73;;;17.80;99.90;;;;;;5070719;28;20517;-59
2023/06/13 02:03:24;;;;;;;22.17;13.52;;;17.80;99.90;;;;;;5064791;28;20033;-58
2023/06/13 02:05:52;;;;;;;22.77;14.75;;;17.80;99.90;;;;;;5049261;28;20060;-58
2023/06/13 02:08:19;;;;;;;21.65;13.70;;;17.80;99.90;;;;;;5059707;28;20040;-58
2023/06/13 02:10:47;;;;;;;22.45;15.68;;;17.80;99.90;;;;;;5064691;28;20511;-58
2023/06/13 02:13:15;;;;;;;24.42;16.98;;;17.80;99.90;;;;;;5050296;28;20048;-58
2023/06/13 02:15:42;;;;;;;22.10;14.60;;;17.70;99.90;;;;;;5076112;28;20048;-58
2023/06/13 02:18:10;;;;;;;23.08;15.23;;;17.70;99.90;;;;;;5063767;28;20047;-59
2023/06/13 02:20:38;;;;;;;25.33;15.55;;;17.70;99.90;;;;;;5063450;28;20043;-58
2023/06/13 02:23:06;;;;;;;23.52;14.93;;;17.70;99.90;;;;;;5050967;28;20492;-59
2023/06/13 02:25:34;;;;;;;22.40;14.85;;;17.70;99.90;;;;;;5049862;28;20048;-59
2023/06/13 02:28:02;;;;;;;24.85;15.23;;;17.60;99.90;;;;;;5053516;28;20044;-58
2023/06/13 02:30:29;;;;;;;25.67;15.82;;;17.60;99.90;;;;;;5050630;28;20049;-59
2023/06/13 02:33:01;;;;;;;21.95;14.60;;;17.60;99.90;;;;;;5051000;28;20064;-59
2023/06/13 02:35:29;;;;;;;19.98;14.90;;;17.60;99.90;;;;;;5050078;28;20417;-58
2023/06/13 02:37:56;;;;;;;19.60;14.43;;;17.50;99.90;;;;;;5057655;28;20060;-59
2023/06/13 02:40:24;;;;;;;24.52;14.65;;;17.50;99.90;;;;;;5069261;28;20059;-59
2023/06/13 02:42:54;;;;;;;26.38;15.57;;;17.50;99.90;;;;;;5070056;28;20052;-59
2023/06/13 02:45:22;;;;;;;;;;;17.50;99.90;;;;;;5078993;28;20048;-59
2023/06/13 02:47:50;;;;;;;23.92;14.55;;;17.50;99.90;;;;;;5095180;28;19920;-59
2023/06/13 02:50:18;;;;;;;20.92;13.60;;;17.40;99.90;;;;;;5073080;28;20045;-59
2023/06/13 02:52:47;;;;;;;19.27;13.80;;;17.50;99.90;;;;;;5053476;28;20048;-59
2023/06/13 02:55:20;;;;;;;23.92;14.45;;;17.40;99.90;;;;;;5055704;28;20496;-59
2023/06/13 02:57:48;;;;;;;19.15;14.93;;;17.40;99.90;;;;;;5067432;28;20048;-59
2023/06/13 03:00:16;;;;;;;25.00;14.73;;;17.40;99.90;;;;;;5054612;28;20049;-59
2023/06/13 03:02:51;;;;;;;22.42;14.77;;;17.40;99.90;;;;;;5053566;28;20045;-59
2023/06/13 03:05:20;;;;;;;23.00;14.13;;;17.40;99.90;;;;;;5053323;28;20481;-60
2023/06/13 03:07:51;;;;;;;22.75;15.43;;;17.40;99.90;;;;;;5059207;28;20049;-60
2023/06/13 03:10:25;;;;;;;22.33;15.05;;;17.40;99.90;;;;;;5073468;28;20051;-59
2023/06/13 03:12:52;;;;;;;20.70;15.48;;;17.40;99.90;;;;;;5074197;28;20056;-59
2023/06/13 03:15:22;;;;;;;20.73;14.55;;;17.30;99.90;;;;;;5080466;28;20411;-59
2023/06/13 03:17:50;;;;;;;23.00;14.75;;;17.30;99.90;;;;;;5093155;28;20047;-59
2023/06/13 03:20:20;;;;;;;23.60;14.13;;;17.30;99.90;;;;;;5094568;28;20487;-59
2023/06/13 03:23:00;;;;;;;18.55;13.57;;;17.30;99.90;;;;;;5093452;28;20491;-58
2023/06/13 03:25:29;;;;;;;22.50;13.77;;;17.30;99.90;;;;;;5093311;28;20048;-59
2023/06/13 03:27:58;;;;;;;19.98;13.70;;;17.20;99.90;;;;;;5093381;28;20044;-59
2023/06/13 03:30:26;;;;;;;21.42;12.65;;;17.20;99.90;;;;;;5092797;28;20499;-59
2023/06/13 03:32:55;;;;;;;16.45;11.95;;;17.20;99.90;;;;;;5076385;28;20059;-59
2023/06/13 03:35:27;;;;;;;20.30;11.70;;;17.20;99.90;;;;;;5059386;28;20045;-59
2023/06/13 03:37:56;;;;;;;24.70;11.93;;;17.10;99.90;;;;;;5072322;28;20048;-59
2023/06/13 03:40:26;;;;;;;23.40;10.27;;;17.10;99.90;;;;;;5072752;28;20503;-60
2023/06/13 03:42:53;;;;;;;16.27;9.02;;;17.10;99.90;;;;;;5073952;28;20056;-59
2023/06/13 03:45:24;;;;;;;17.35;8.60;;;17.10;99.90;;;;;;5080085;28;20403;-59
2023/06/13 03:47:52;;;;;;;13.45;8.88;;;17.00;99.90;;;;;;5094257;28;20040;-59
2023/06/13 03:50:20;;;;;;;12.73;8.65;;;16.90;99.90;;;;;;5092240;28;20043;-59
2023/06/13 03:52:48;;;;;;;18.75;9.25;;;16.90;99.90;;;;;;5092546;28;20066;-59
2023/06/13 03:55:16;;;;;;;10.43;7.97;;;16.80;99.90;;;;;;5088762;28;20551;-59
2023/06/13 03:57:45;;;;;;;18.38;8.45;;;16.60;99.90;;;;;;5072598;28;20518;-59
2023/06/13 04:00:14;;;;;;;10.60;7.82;;;16.60;99.90;;;;;;5072227;28;20044;-59
2023/06/13 04:02:42;;;;;;;12.68;8.18;;;16.60;99.90;;;;;;5071219;28;20527;-59
2023/06/13 04:05:13;;;;;;;9.30;7.60;;;16.50;99.90;;;;;;5071987;28;20496;-59
2023/06/13 04:07:42;;;;;;;12.18;7.03;;;16.50;99.90;;;;;;5072010;28;20404;-59
2023/06/13 04:10:10;;;;;;;12.27;8.37;;;16.40;99.90;;;;;;5071985;28;20040;-59
2023/06/13 04:12:39;;;;;;;12.65;8.25;;;16.40;99.90;;;;;;5072294;28;20044;-59
2023/06/13 04:15:07;;;;;;;12.15;7.72;;;16.40;99.90;;;;;;5077371;28;20048;-59
2023/06/13 04:17:36;;;;;;;19.58;8.57;;;16.40;99.90;;;;;;5076290;28;20519;-60
2023/06/13 04:20:11;;;;;;;18.38;8.75;;;16.40;99.90;;;;;;5071888;28;20060;-59
2023/06/13 04:22:39;;;;;;;15.43;8.80;;;16.40;99.90;;;;;;5073237;28;20051;-59
2023/06/13 04:25:07;;;;;;;14.77;7.55;;;16.40;99.90;;;;;;5069124;28;20040;-60
2023/06/13 04:27:36;;;;;;;12.70;7.78;;;16.50;99.90;;;;;;5058327;28;20040;-59
2023/06/13 04:30:05;;;;;;;15.77;6.78;;;16.50;99.90;;;;;;5071508;28;20075;-59
2023/06/13 04:32:34;;;;;;;11.40;7.68;;;16.50;99.90;;;;;;5071798;28;20052;-59
2023/06/13 04:35:02;;;;;;;12.47;7.70;;;16.50;99.90;;;;;;5072958;28;20057;-59
2023/06/13 04:37:30;;;;;;;11.38;6.85;;;16.50;99.90;;;;;;5072608;28;20488;-59
2023/06/13 04:39:58;;;;;;;12.20;6.80;;;16.50;99.90;;;;;;5072811;28;20048;-59
2023/06/13 04:42:29;;;;;;;9.57;5.93;;;16.50;99.90;;;;;;5055182;28;20063;-59
2023/06/13 04:45:00;;;;;;;14.27;6.78;;;16.50;99.90;;;;;;5076405;28;20420;-59
2023/06/13 04:47:33;;;;;;;9.73;6.30;;;16.50;99.90;;;;;;5078050;28;20051;-60
2023/06/13 04:50:21;;;;;;;;;;;16.50;99.90;;;;;;5049249;28;20041;-60
2023/06/13 04:52:53;;;;;;;14.60;6.40;;;16.40;99.90;;;;;;5049392;28;19928;-60
2023/06/13 04:55:25;;;;;;;11.68;6.43;;;16.50;99.90;;;;;;5058501;28;20044;-60
2023/06/13 04:57:54;;;;;;;12.20;6.47;;;16.50;99.90;;;;;;5056302;28;20077;-60
2023/06/13 05:00:24;;;;;;;7.30;5.68;;;16.50;99.90;;;;;;5051766;28;20060;-60
2023/06/13 05:02:55;;;;;;;8.95;6.10;;;16.50;99.90;;;;;;5045731;28;20496;-60
2023/06/13 05:05:23;;;;;;;14.75;6.28;;;16.50;99.90;;;;;;5043876;28;20041;-59
2023/06/13 05:07:57;;;;;;;12.77;6.15;;;16.50;99.90;;;;;;5051634;28;20057;-60
2023/06/13 05:10:27;;;;;;;12.23;5.85;;;16.50;99.90;;;;;;5065542;28;20049;-60
2023/06/13 05:12:55;;;;;;;9.65;6.28;;;16.50;99.90;;;;;;5079025;28;20368;-60
2023/06/13 05:15:24;;;;;;;9.40;6.25;;;16.40;99.90;;;;;;5075911;28;20041;-60
2023/06/13 05:17:56;;;;;;;12.95;6.40;;;16.40;99.90;;;;;;5063852;28;20044;-60
2023/06/13 05:20:27;;;;;;;12.52;7.05;;;16.30;99.90;;;;;;5069275;28;20044;-60
2023/06/13 05:22:56;;;;;;;10.02;5.75;;;16.30;99.90;;;;;;5053218;28;20175;-60
2023/06/13 05:25:24;;;;;;;11.18;6.28;;;16.30;99.90;;;;;;5044657;28;20057;-59
2023/06/13 05:27:55;;;;;;;9.30;6.00;;;16.30;99.90;;;;;;5048606;28;20610;-60
2023/06/13 05:30:23;;;;;;;12.13;6.40;;;16.30;99.90;;;;;;5045221;28;20060;-60
2023/06/13 05:32:51;;;;;;;10.90;6.38;;;16.30;99.90;;;;;;5047571;28;20519;-60
2023/06/13 05:35:20;;;;;;;13.60;6.38;;;16.30;99.90;;;;;;5087885;28;20040;-60
2023/06/13 05:37:50;;;;;;;11.55;6.10;;;16.40;99.90;;;;;;5065947;28;20052;-60
2023/06/13 05:40:18;;;;;;;10.95;6.50;;;16.40;99.90;;;;;;5048067;28;20045;-60
2023/06/13 05:42:46;;;;;;;16.20;6.63;;;16.30;99.90;;;;;;5064536;28;20113;-60
2023/06/13 05:45:14;;;;;;;9.68;6.25;;;16.40;99.90;;;;;;5069923;28;20461;-60
2023/06/13 05:47:41;;;;;;;11.48;6.70;;;16.40;99.90;;;;;;5047301;28;20053;-59
2023/06/13 05:50:10;;;;;;;9.55;7.05;;;16.40;99.90;;;;;;5046556;28;20052;-60
2023/06/13 05:52:39;;;;;;;9.18;6.57;;;16.40;99.90;;;;;;5052200;28;20071;-60
2023/06/13 05:55:06;;;;;;;12.35;7.03;;;16.40;99.90;;;;;;5042531;28;20048;-60
2023/06/13 05:57:42;;;;;;;13.65;7.63;;;16.50;99.90;;;;;;5043608;28;20353;-60
2023/06/13 06:00:14;;;;;;;8.90;5.72;;;16.50;99.90;;;;;;5054212;28;20075;-60
2023/06/13 06:02:45;;;;;;;12.70;6.15;;;16.50;99.90;;;;;;5049984;28;20492;-60
2023/06/13 06:05:13;;;;;;;15.95;7.13;;;16.60;99.90;;;;;;5064057;28;20665;-60
2023/06/13 06:07:43;;;;;;;15.35;7.25;;;16.60;99.90;;;;;;5067066;28;20488;-61
2023/06/13 06:10:12;;;;;;;12.40;6.90;;;16.60;99.90;;;;;;5049713;28;20040;-61
2023/06/13 06:12:42;;;;;;;11.93;7.45;;;16.70;99.90;;;;;;5062614;28;20056;-63
2023/06/13 06:15:10;;;;;;;10.88;6.18;;;16.70;99.90;;;;;;5068372;28;20048;-63
2023/06/13 06:17:38;;;;;;;11.70;6.82;;;16.70;99.90;;;;;;5076522;28;20055;-63
2023/06/13 06:20:06;;;;;;;15.52;7.75;;;16.70;99.90;;;;;;5046797;28;20049;-60
2023/06/13 06:22:36;;;;;;;9.63;6.65;;;16.80;99.90;;;;;;5051666;28;20407;-61
2023/06/13 06:25:04;;;;;;;9.77;6.57;;;16.80;99.90;;;;;;5064833;28;20419;-63
2023/06/13 06:27:31;;;;;;;10.77;6.60;;;16.80;99.90;;;;;;5066661;28;20495;-63
2023/06/13 06:29:59;;;;;;;10.00;6.70;;;16.80;99.90;;;;;;5072295;28;20404;-60
2023/06/13 06:32:27;;;;;;;20.88;6.43;;;16.90;99.90;;;;;;5061659;28;20071;-60
2023/06/13 06:34:55;;;;;;;11.77;7.18;;;16.90;99.90;;;;;;5053918;28;20041;-59
2023/06/13 06:37:22;;;;;;;16.52;6.05;;;17.00;99.90;;;;;;5066448;28;20503;-60
2023/06/13 06:39:50;;;;;;;12.60;6.95;;;17.00;99.90;;;;;;5067344;28;20044;-64
2023/06/13 06:42:18;;;;;;;12.00;6.47;;;17.10;99.90;;;;;;5071909;28;20052;-64
2023/06/13 06:44:58;;;;;;;8.18;6.30;;;17.20;99.90;;;;;;5045416;28;20056;-62
2023/06/13 06:47:26;;;;;;;10.90;6.95;;;17.20;99.90;;;;;;5061854;28;20055;-62
2023/06/13 06:49:54;;;;;;;10.40;7.78;;;17.30;99.90;;;;;;5051919;28;20045;-62
2023/06/13 06:52:22;;;;;;;10.18;6.40;;;17.40;99.90;;;;;;5069859;28;20037;-63
2023/06/13 06:54:51;;;;;;;10.07;6.63;;;17.40;99.90;;;;;;5064694;28;20056;-63
2023/06/13 06:57:19;;;;;;;9.18;6.28;;;17.60;99.90;;;;;;5079500;28;20044;-62
2023/06/13 06:59:50;;;;;;;17.25;7.32;;;17.60;99.90;;;;;;5063126;28;20048;-63
2023/06/13 07:02:19;;;;;;;11.82;7.03;;;17.70;99.90;;;;;;5059498;28;20047;-62
2023/06/13 07:04:47;;;;;;;8.90;6.90;;;17.70;99.90;;;;;;5060994;28;20052;-62
2023/06/13 07:07:15;;;;;;;11.65;5.63;;;17.80;99.90;;;;;;5066069;28;20490;-62
2023/06/13 07:09:42;;;;;;;7.43;5.43;;;17.90;99.90;;;;;;5046837;28;20053;-64
2023/06/13 07:12:10;;;;;;;12.48;6.28;;;17.90;99.90;;;;;;5052317;28;20479;-60
2023/06/13 07:14:38;;;;;;;9.68;6.15;;;18.10;99.90;;;;;;5072441;28;20041;-60
2023/06/13 07:17:05;;;;;;;8.00;5.65;;;18.20;99.90;;;;;;5081188;28;20400;-59
2023/06/13 07:19:33;;;;;;;9.52;5.35;;;18.40;99.90;;;;;;5056782;28;20060;-61
2023/06/13 07:22:02;;;;;;;7.97;5.32;;;18.40;99.90;;;;;;5060273;28;20041;-61
2023/06/13 07:24:33;;;;;;;11.85;5.43;;;18.50;99.90;;;;;;5045329;28;20478;-62
2023/06/13 07:27:01;;;;;;;9.07;5.50;;;18.70;99.90;;;;;;5042468;28;20056;-62
2023/06/13 07:29:29;;;;;;;8.02;5.03;;;19.60;99.90;;;;;;5054125;28;20408;-63
2023/06/13 07:31:56;;;;;;;7.85;5.25;;;19.20;99.90;;;;;;5063076;28;20048;-62
2023/06/13 07:34:25;;;;;;;6.80;4.88;;;19.30;99.90;;;;;;5065106;28;20051;-62
2023/06/13 07:37:15;;;;;;;10.10;4.95;;;19.50;99.90;;;;;;5066203;28;20395;-62
2023/06/13 07:39:43;;;;;;;9.13;5.65;;;19.60;99.90;;;;;;5050297;28;20041;-62
2023/06/13 07:42:11;;;;;;;7.32;5.30;;;19.70;99.90;;;;;;5068551;28;20578;-63
2023/06/13 07:44:41;;;;;;;6.32;4.50;;;19.80;99.90;;;;;;5070055;28;20047;-63
2023/06/13 07:47:10;;;;;;;6.60;4.70;;;19.90;99.90;;;;;;5062633;28;20041;-63
2023/06/13 07:49:37;;;;;;;8.48;5.25;;;20.00;99.90;;;;;;5058832;28;20056;-63
2023/06/13 07:52:07;;;;;;;12.38;4.72;;;20.10;99.90;;;;;;5052541;28;20529;-63
2023/06/13 07:54:36;;;;;;;6.57;4.97;;;20.30;99.90;;;;;;5065641;28;20400;-62
2023/06/13 07:57:04;;;;;;;6.05;4.40;;;20.40;99.90;;;;;;5084102;28;20051;-63
2023/06/13 07:59:55;;;;;;;13.98;5.10;;;20.40;99.90;;;;;;5087827;28;20502;-63
2023/06/13 08:02:24;;;;;;;7.35;4.75;;;20.60;99.90;;;;;;5055629;28;20048;-63
2023/06/13 08:04:52;;;;;;;6.60;4.18;;;20.60;99.90;;;;;;5061423;28;20048;-64
2023/06/13 08:07:22;;;;;;;6.82;4.70;;;20.70;99.90;;;;;;5063810;28;20848;-63
2023/06/13 08:09:50;;;;;;;8.25;4.75;;;20.70;99.90;;;;;;5053565;28;20303;-63
2023/06/13 08:12:18;;;;;;;10.10;4.30;;;20.70;99.90;;;;;;5057158;28;20288;-63
2023/06/13 08:14:45;;;;;;;14.10;4.30;;;20.80;99.90;;;;;;5066317;28;20056;-64
2023/06/13 08:17:13;;;;;;;11.40;4.43;;;20.90;99.90;;;;;;5069491;28;20752;-63
2023/06/13 08:19:41;;;;;;;7.35;4.25;;;20.90;99.90;;;;;;5062120;28;20045;-63
2023/06/13 08:22:09;;;;;;;9.05;4.00;;;21.00;99.90;;;;;;5064590;28;20087;-63
2023/06/13 08:24:36;;;;;;;6.68;4.75;;;21.10;99.90;;;;;;5071778;28;20377;-63
2023/06/13 08:27:04;;;;;;;19.67;4.85;;;21.10;99.90;;;;;;5066012;28;20045;-63
2023/06/13 08:29:33;;;;;;;6.78;4.82;;;21.20;99.90;;;;;;5067564;28;20068;-64
2023/06/13 08:32:01;;;;;;;1331.47;564.72;;;21.20;99.90;;;;;;5063977;28;20044;-64
2023/06/13 08:34:30;;;;;;;12.20;4.80;;;21.30;99.90;;;;;;5060743;28;20052;-62
2023/06/13 08:36:58;;;;;;;13.30;5.30;;;21.30;99.90;;;;;;5069261;28;20044;-64
2023/06/13 08:39:25;;;;;;;8.07;4.35;;;21.30;99.90;;;;;;5066380;28;20044;-64
2023/06/13 08:41:55;;;;;;;7.75;4.50;;;21.40;99.90;;;;;;5068227;28;20044;-64
2023/06/13 08:44:24;;;;;;;5.63;4.57;;;21.50;99.90;;;;;;5060610;28;20056;-63
2023/06/13 08:46:52;;;;;;;10.20;4.13;;;21.60;99.90;;;;;;5065375;28;20042;-64
2023/06/13 08:49:22;;;;;;;6.10;4.20;;;21.70;99.90;;;;;;5054418;28;20041;-64
2023/06/13 08:51:52;;;;;;;7.70;4.40;;;21.80;99.90;;;;;;5064378;28;20400;-64
2023/06/13 08:54:20;;;;;;;7.03;4.15;;;21.90;99.90;;;;;;5067315;28;20047;-64
2023/06/13 08:56:51;;;;;;;8.27;4.35;;;22.00;99.90;;;;;;5061560;28;20044;-63
2023/06/13 08:59:23;;;;;;;5.55;4.05;;;22.10;99.90;;;;;;5063076;28;20052;-64
2023/06/13 09:01:52;;;;;;;9.93;4.00;;;22.20;99.90;;;;;;5067629;28;20047;-63
2023/06/13 09:04:21;;;;;;;8.50;4.05;;;22.20;99.90;;;;;;5071612;28;20052;-64
2023/06/13 09:06:50;;;;;;;6.20;4.00;;;22.30;99.90;;;;;;5058698;28;20064;-65
2023/06/13 09:09:18;;;;;;;7.22;4.18;;;22.30;99.90;;;;;;5052103;28;20041;-64
2023/06/13 09:11:49;;;;;;;5.88;3.92;;;22.40;99.90;;;;;;5066617;28;20044;-65
2023/06/13 09:14:19;;;;;;;10.82;4.43;;;22.60;99.90;;;;;;5056756;28;20048;-65
2023/06/13 09:16:53;;;;;;;7.38;4.35;;;22.70;99.90;;;;;;5086649;28;20487;-64
2023/06/13 09:19:21;;;;;;;7.28;4.10;;;22.90;99.90;;;;;;5062490;28;20052;-64
2023/06/13 09:21:48;;;;;;;6.15;4.72;;;23.00;99.90;;;;;;5062537;28;20095;-64
2023/06/13 09:24:17;;;;;;;7.45;4.20;;;23.10;99.90;;;;;;5056909;28;20056;-65
2023/06/13 09:26:45;;;;;;;5.95;3.47;;;23.20;99.90;;;;;;5057434;28;20049;-64
2023/06/13 09:29:13;;;;;;;8.18;6.22;;;23.40;99.90;;;;;;5060841;28;20053;-64
2023/06/13 09:31:59;;;;;;;143.63;20.48;;;23.50;98.60;;;;;;5060430;28;20331;-63
2023/06/13 09:34:30;;;;;;;161.15;16.17;;;23.60;97.40;;;;;;5065587;28;20049;-64
2023/06/13 09:36:58;;;;;;;9.60;3.72;;;23.70;98.00;;;;;;5063881;28;20326;-65
2023/06/13 09:39:28;;;;;;;7.10;4.30;;;23.90;99.70;;;;;;5054077;28;20048;-66
2023/06/13 09:41:57;;;;;;;7.63;4.25;;;24.00;99.10;;;;;;5048526;28;20052;-64
2023/06/13 09:44:25;;;;;;;8.20;5.23;;;24.10;99.90;;;;;;5062008;28;20048;-65
2023/06/13 09:46:54;;;;;;;6.45;3.95;;;24.20;99.70;;;;;;5065641;28;20308;-65
2023/06/13 09:49:23;;;;;;;6.82;3.78;;;24.30;97.50;;;;;;5066230;28;20044;-66
2023/06/13 09:51:52;;;;;;;8.48;3.70;;;24.30;97.50;;;;;;5067794;28;20048;-64
2023/06/13 09:54:20;;;;;;;4.68;3.60;;;24.50;97.00;;;;;;5047759;28;20064;-67
2023/06/13 09:56:47;;;;;;;5.75;4.38;;;24.60;96.00;;;;;;5052191;28;20075;-66
2023/06/13 09:59:18;;;;;;;6.05;3.60;;;24.70;96.60;;;;;;5055347;28;20037;-66
2023/06/13 10:01:48;;;;;;;7.20;4.00;;;24.90;95.30;;;;;;5049680;28;20053;-66
2023/06/13 10:04:16;;;;;;;;;;;25.00;95.10;;;;;;5054300;28;20045;-67
2023/06/13 10:06:44;;;;;;;6.75;4.32;;;25.10;95.60;;;;;;5051215;28;19921;-67
2023/06/13 10:09:12;;;;;;;6.05;4.40;;;25.20;95.60;;;;;;5052678;28;20048;-66
2023/06/13 10:11:46;;;;;;;7.88;4.10;;;25.30;93.70;;;;;;5052606;28;20047;-67
2023/06/13 10:14:21;;;;;;;7.78;3.97;;;25.40;94.30;;;;;;5055168;28;20518;-67
2023/06/13 10:16:56;;;;;;;7.10;4.25;;;25.60;94.70;;;;;;5063476;28;20045;-66
2023/06/13 10:19:39;;;;;;;11.07;4.57;;;25.70;94.50;;;;;;5053050;28;20056;-66
2023/06/13 10:22:08;;;;;;;6.13;4.15;;;25.80;94.60;;;;;;5048781;28;20045;-66
2023/06/13 10:24:38;;;;;;;7.63;4.72;;;26.00;93.90;;;;;;5055599;28;20056;-67
2023/06/13 10:27:08;;;;;;;7.72;4.38;;;26.10;94.50;;;;;;5054917;28;20498;-66
2023/06/13 10:29:44;;;;;;;8.88;4.90;;;26.20;93.40;;;;;;5047775;28;20064;-66
2023/06/13 10:32:59;;;;;;;7.97;4.85;;;26.30;93.80;;;;;;5049470;28;20468;-67
2023/06/13 10:35:44;;;;;;;6.80;4.70;;;26.30;94.70;;;;;;5051363;28;20060;-65
2023/06/13 10:38:33;;;;;;;7.15;5.13;;;26.30;92.50;;;;;;5056946;28;20045;-65
2023/06/13 10:41:36;;;;;;;9.95;4.97;;;26.50;94.20;;;;;;5061331;28;20080;-65
2023/06/13 10:44:46;;;;;;;10.95;4.80;;;26.50;94.60;;;;;;5071575;28;20053;-65
2023/06/13 10:47:18;;;;;;;8.37;5.00;;;26.60;95.30;;;;;;5031244;28;20049;-66
2023/06/13 10:49:48;;;;;;;9.07;5.32;;;26.80;94.40;;;;;;5058758;28;20302;-67
2023/06/13 10:52:19;;;;;;;7.57;5.47;;;26.90;93.90;;;;;;5053699;28;20040;-67
2023/06/13 10:54:55;;;;;;;8.40;5.20;;;27.00;93.90;;;;;;5062277;28;20045;-65
2023/06/13 10:57:51;;;;;;;8.05;5.35;;;27.00;94.30;;;;;;5046772;28;20048;-66
2023/06/13 11:00:34;;;;;;;9.55;5.90;;;27.10;93.80;;;;;;5054675;28;20506;-67
2023/06/13 11:03:09;;;;;;;5.47;4.88;;;27.20;94.00;;;;;;5061467;28;20061;-67
2023/06/13 11:05:50;;;;;;;13.35;6.03;;;27.30;94.10;;;;;;5049335;28;20484;-67
2023/06/13 11:08:25;;;;;;;11.30;5.90;;;27.30;94.20;;;;;;5070717;28;20059;-69
2023/06/13 11:10:55;;;;;;;8.80;5.68;;;27.40;94.10;;;;;;5070065;28;20061;-68
2023/06/13 11:13:31;;;;;;;10.02;5.78;;;27.50;93.30;;;;;;5069263;28;20044;-67
2023/06/13 11:16:17;;;;;;;8.60;5.55;;;27.50;93.50;;;;;;5059590;28;20515;-66
2023/06/13 11:18:47;;;;;;;8.25;5.50;;;27.70;94.30;;;;;;5062530;28;20057;-68
2023/06/13 11:21:15;;;;;;;;;;;27.80;94.50;;;;;;5058468;28;20045;-67
2023/06/13 11:23:53;;;;;;;6.35;5.35;;;27.90;93.30;;;;;;5067561;28;19920;-69
2023/06/13 11:26:21;;;;;;;10.38;5.40;;;27.90;92.00;;;;;;5053328;28;20049;-68
2023/06/13 11:28:50;;;;;;;8.15;5.57;;;28.00;92.70;;;;;;5077620;28;20055;-67
2023/06/13 11:31:19;;;;;;;9.38;6.03;;;28.00;91.60;;;;;;5059374;28;20049;-69
2023/06/13 11:33:50;;;;;;;11.82;5.45;;;28.10;91.40;;;;;;5063842;28;20048;-69
2023/06/13 11:36:19;;;;;;;9.82;5.60;;;28.10;92.00;;;;;;5068498;28;20052;-70
2023/06/13 11:39:03;;;;;;;8.57;5.15;;;28.20;91.00;;;;;;5069570;28;20055;-68
2023/06/13 11:41:32;;;;;;;7.32;5.40;;;28.30;89.30;;;;;;5057265;28;20041;-69
2023/06/13 11:44:00;;;;;;;7.35;4.63;;;28.30;88.90;;;;;;5071256;28;20036;-69
2023/06/13 11:46:27;;;;;;;12.05;4.85;;;28.40;84.70;;;;;;5062448;28;20061;-68
2023/06/13 11:48:56;;;;;;;10.20;4.95;;;28.50;84.90;;;;;;5058388;28;20048;-70
2023/06/13 11:51:29;;;;;;;7.15;4.50;;;28.60;82.30;;;;;;5061298;28;20037;-70
2023/06/13 11:54:00;;;;;;;12.20;4.72;;;28.70;83.60;;;;;;5051635;28;20041;-67
2023/06/13 11:56:29;;;;;;;6.72;5.07;;;28.90;84.50;;;;;;5040864;28;20059;-71
2023/06/13 11:58:57;;;;;;;5.78;4.20;;;29.00;83.00;;;;;;5058282;28;20056;-69
2023/06/13 12:01:26;;;;;;;7.90;4.78;;;29.20;80.70;;;;;;5057789;28;20118;-69
2023/06/13 12:03:59;;;;;;;11.50;6.63;;;29.50;78.90;;;;;;5062142;28;20059;-68
2023/06/13 12:06:27;;;;;;;9.20;4.85;;;29.40;79.20;;;;;;5023971;28;20538;-68
2023/06/13 12:08:55;;;;;;;14.75;5.03;;;29.60;77.90;;;;;;5014213;28;20608;-67
2023/06/13 12:11:26;;;;;;;12.30;5.30;;;29.60;77.70;;;;;;5021892;28;20045;-70
2023/06/13 12:14:02;;;;;;;7.47;5.00;;;29.60;75.70;;;;;;5016429;28;20046;-71
2023/06/13 12:16:35;;;;;;;8.10;4.32;;;29.60;76.30;;;;;;5021373;28;20056;-71
2023/06/13 12:19:04;;;;;;;14.20;5.38;;;29.70;77.30;;;;;;5010941;28;20053;-70
2023/06/13 12:21:34;;;;;;;10.55;4.80;;;29.80;77.00;;;;;;5028949;28;20057;-71
2023/06/13 12:24:07;;;;;;;12.20;5.40;;;30.10;76.50;;;;;;5024254;28;20473;-70
2023/06/13 12:26:40;;;;;;;8.90;4.93;;;30.20;76.80;;;;;;5025626;28;20061;-69
2023/06/13 12:29:13;;;;;;;8.45;5.10;;;30.60;77.00;;;;;;5025316;28;20061;-68
2023/06/13 12:31:44;;;;;;;8.07;4.90;;;30.60;77.60;;;;;;5028249;28;20056;-71
2023/06/13 12:34:18;;;;;;;16.25;5.85;;;30.90;75.30;;;;;;5028076;28;20037;-69
2023/06/13 12:36:50;;;;;;;9.65;4.93;;;31.00;74.00;;;;;;5010803;28;20421;-71
2023/06/13 12:39:18;;;;;;;11.93;5.38;;;31.10;72.80;;;;;;5016895;28;20049;-74
2023/06/13 12:41:50;;;;;;;7.50;4.70;;;31.10;73.10;;;;;;5028630;28;20041;-74
2023/06/13 12:44:21;;;;;;;9.73;4.85;;;31.20;73.80;;;;;;5016666;28;20053;-72
2023/06/13 12:46:52;;;;;;;6.38;4.97;;;31.20;70.40;;;;;;5028328;28;20050;-74
2023/06/13 12:49:21;;;;;;;6.50;4.60;;;31.20;69.00;;;;;;5015359;28;20477;-73
2023/06/13 12:51:53;;;;;;;11.05;5.45;;;31.30;70.10;;;;;;5017209;28;20041;-76
2023/06/13 12:54:25;;;;;;;8.38;4.32;;;31.40;70.30;;;;;;5010727;28;20401;-73
2023/06/13 12:57:02;;;;;;;7.22;4.15;;;31.60;69.30;;;;;;5007303;28;20060;-74
2023/06/13 12:59:35;;;;;;;9.48;5.20;;;31.60;69.50;;;;;;5018500;28;20038;-74